Time;durP1;ratioP1;P1;durP2;ratioP2;P2;SDS_P1;SDS_P2;PMS_P1;PMS_P2;Temp;Humidity;BMP_temperature;BMP_pressure;BME280_temperature;BME280_humidity;BME280_pressure;Samples;Min_cycle;Max_cycle;Signal;HPM_P1;HPM_P2
2024/01/09 00:04:22;;;;;;;0.40;0.40;;;0.30;85.00;;;;;;10522042;28;20550;-79
2024/01/09 00:09:26;;;;;;;0.30;0.30;;;0.30;82.60;;;;;;10516858;28;20246;-77
2024/01/09 00:14:29;;;;;;;0.40;0.40;;;0.20;82.30;;;;;;10517483;28;20207;-78
2024/01/09 00:19:33;;;;;;;0.40;0.40;;;0.20;83.00;;;;;;10517752;28;20223;-79
2024/01/09 00:24:37;;;;;;;0.63;0.63;;;0.20;83.40;;;;;;10524350;28;20661;-78
2024/01/09 00:29:39;;;;;;;0.30;0.30;;;0.20;83.00;;;;;;10522019;28;20254;-79
2024/01/09 00:34:42;;;;;;;0.30;0.30;;;0.10;83.60;;;;;;10519986;28;20200;-78
2024/01/09 00:39:45;;;;;;;0.30;0.30;;;0.20;83.60;;;;;;10524891;28;20227;-79
2024/01/09 00:44:48;;;;;;;0.30;0.30;;;0.20;83.50;;;;;;10520887;28;20197;-78
2024/01/09 00:49:50;;;;;;;0.30;0.30;;;0.20;83.10;;;;;;10523450;28;20228;-78
2024/01/09 00:54:54;;;;;;;0.40;0.40;;;0.10;82.50;;;;;;10505681;28;20237;-78
2024/01/09 00:59:56;;;;;;;0.33;0.33;;;0.10;83.10;;;;;;10515358;28;20339;-78
2024/01/09 01:04:58;;;;;;;0.40;0.40;;;0.10;81.30;;;;;;10507171;28;20226;-79
2024/01/09 01:10:02;;;;;;;0.40;0.40;;;0.00;82.20;;;;;;10525044;28;20228;-78
2024/01/09 01:15:05;;;;;;;0.40;0.40;;;0.00;82.80;;;;;;10524935;28;20706;-79
2024/01/09 01:20:09;;;;;;;0.30;0.30;;;0.00;80.50;;;;;;10524265;28;20772;-77
2024/01/09 01:25:12;;;;;;;0.30;0.30;;;0.00;82.00;;;;;;10516235;28;20214;-78
2024/01/09 01:30:15;;;;;;;0.30;0.30;;;0.00;81.10;;;;;;10525739;28;20227;-77
2024/01/09 01:35:17;;;;;;;0.40;0.40;;;0.00;81.80;;;;;;10518252;28;20212;-78
2024/01/09 01:40:21;;;;;;;0.30;0.30;;;0.10;80.20;;;;;;10524776;28;20655;-77
2024/01/09 01:45:25;;;;;;;0.30;0.30;;;0.00;80.70;;;;;;10501107;28;20278;-78
2024/01/09 01:50:28;;;;;;;0.40;0.40;;;0.00;80.80;;;;;;10511198;28;20635;-78
2024/01/09 01:55:32;;;;;;;0.40;0.40;;;-0.10;79.40;;;;;;10495523;28;20211;-78
2024/01/09 02:00:35;;;;;;;0.33;0.33;;;-0.10;79.40;;;;;;10515007;28;20581;-79
2024/01/09 02:05:37;;;;;;;0.33;0.33;;;-0.10;80.10;;;;;;10509960;28;20617;-78
2024/01/09 02:10:41;;;;;;;0.37;0.37;;;-0.20;80.10;;;;;;10522363;28;20256;-78
2024/01/09 02:15:43;;;;;;;0.40;0.40;;;-0.20;79.60;;;;;;10511359;28;20201;-78
2024/01/09 02:20:46;;;;;;;0.30;0.30;;;-0.20;79.70;;;;;;10508410;28;20211;-78
2024/01/09 02:25:50;;;;;;;0.40;0.40;;;-0.20;79.90;;;;;;10521358;28;20210;-78
2024/01/09 02:30:56;;;;;;;0.40;0.40;;;-0.30;80.00;;;;;;10519786;28;20228;-77
2024/01/09 02:35:58;;;;;;;0.40;0.40;;;-0.20;79.70;;;;;;10507617;28;20266;-78
2024/01/09 02:41:00;;;;;;;0.30;0.30;;;-0.30;79.10;;;;;;10513027;28;20215;-79
2024/01/09 02:46:04;;;;;;;0.40;0.40;;;-0.40;79.90;;;;;;10524418;28;20219;-78
2024/01/09 02:51:07;;;;;;;0.30;0.30;;;-0.40;79.50;;;;;;10512443;28;20224;-78
2024/01/09 02:56:09;;;;;;;0.40;0.40;;;-0.40;81.20;;;;;;10532375;28;20204;-78
2024/01/09 03:01:13;;;;;;;0.30;0.30;;;-0.40;80.60;;;;;;10513341;28;20256;-79
2024/01/09 03:06:15;;;;;;;0.40;0.40;;;-0.30;80.50;;;;;;10500501;28;20196;-78
2024/01/09 03:11:17;;;;;;;0.40;0.40;;;-0.30;80.50;;;;;;10511630;28;20216;-79
2024/01/09 03:16:21;;;;;;;0.30;0.30;;;-0.40;81.40;;;;;;10524529;28;20559;-79
2024/01/09 03:21:23;;;;;;;0.40;0.40;;;-0.40;80.50;;;;;;10519150;28;20223;-78
2024/01/09 03:26:25;;;;;;;0.33;0.33;;;-0.40;80.80;;;;;;10522235;28;20699;-78
2024/01/09 03:31:29;;;;;;;0.40;0.40;;;-0.50;81.20;;;;;;10530322;28;20238;-77
2024/01/09 03:36:32;;;;;;;0.40;0.40;;;-0.60;81.10;;;;;;10528827;28;20204;-77
2024/01/09 03:41:34;;;;;;;0.40;0.40;;;-0.60;79.70;;;;;;10538724;28;20603;-79
2024/01/09 03:46:38;;;;;;;0.40;0.40;;;-0.60;78.90;;;;;;10533603;22;20273;-78
2024/01/09 03:51:41;;;;;;;0.40;0.40;;;-0.60;80.00;;;;;;10500833;28;20220;-78
2024/01/09 03:56:43;;;;;;;0.50;0.50;;;-0.60;80.50;;;;;;10484202;28;20232;-79
2024/01/09 04:01:47;;;;;;;0.40;0.40;;;-0.50;81.00;;;;;;10471682;28;20201;-77
2024/01/09 04:06:49;;;;;;;0.57;0.57;;;-0.50;80.60;;;;;;10470258;28;20221;-79
2024/01/09 04:11:51;;;;;;;0.70;0.70;;;-0.40;80.00;;;;;;10461559;28;20267;-78
2024/01/09 04:16:56;;;;;;;0.50;0.50;;;-0.40;80.40;;;;;;10468237;28;20229;-83
2024/01/09 04:21:58;;;;;;;0.60;0.60;;;-0.40;79.80;;;;;;10458063;28;20216;-80
2024/01/09 04:27:02;;;;;;;0.60;0.60;;;-0.30;77.60;;;;;;10469910;28;20275;-77
2024/01/09 04:32:06;;;;;;;0.50;0.50;;;-0.40;78.80;;;;;;10465793;28;20213;-82
2024/01/09 04:37:08;;;;;;;0.60;0.60;;;-0.40;78.30;;;;;;10463290;28;20225;-82
2024/01/09 04:42:10;;;;;;;0.50;0.50;;;-0.40;78.90;;;;;;10464258;28;20484;-80
2024/01/09 04:47:15;;;;;;;0.50;0.50;;;-0.50;79.00;;;;;;10438091;28;20733;-79
2024/01/09 04:52:18;;;;;;;0.10;0.10;;;-0.50;78.70;;;;;;10451436;28;20220;-79
2024/01/09 04:57:20;;;;;;;0.50;0.50;;;-0.40;78.70;;;;;;10475870;28;20224;-79
2024/01/09 05:02:24;;;;;;;0.40;0.40;;;-0.50;78.00;;;;;;10489920;28;20254;-82
2024/01/09 05:07:26;;;;;;;0.60;0.60;;;-0.50;77.90;;;;;;10460573;28;20221;-80
2024/01/09 05:12:28;;;;;;;0.10;0.10;;;-0.40;78.60;;;;;;10471918;28;20237;-80
2024/01/09 05:17:32;;;;;;;0.50;0.50;;;-0.40;78.80;;;;;;10464515;28;20575;-81
2024/01/09 05:22:35;;;;;;;0.40;0.40;;;-0.40;79.40;;;;;;10456371;28;20198;-83
2024/01/09 05:27:37;;;;;;;0.60;0.60;;;-0.40;79.20;;;;;;10468389;28;20229;-80
2024/01/09 05:32:41;;;;;;;0.50;0.50;;;-0.40;78.40;;;;;;10473390;28;20266;-83
2024/01/09 05:37:43;;;;;;;0.50;0.50;;;-0.40;78.50;;;;;;10461185;28;20224;-79
2024/01/09 05:42:46;;;;;;;0.60;0.60;;;-0.40;77.90;;;;;;10452279;28;20208;-79
2024/01/09 05:47:49;;;;;;;0.50;0.50;;;-0.40;78.40;;;;;;10481704;28;20701;-80
2024/01/09 05:52:52;;;;;;;0.60;0.60;;;-0.40;78.80;;;;;;10486446;28;20275;-80
2024/01/09 05:57:54;;;;;;;0.50;0.50;;;-0.40;78.70;;;;;;10473357;28;20208;-80
2024/01/09 06:02:58;;;;;;;0.40;0.40;;;-0.40;76.80;;;;;;10468263;28;20234;-77
2024/01/09 06:08:00;;;;;;;0.40;0.40;;;-0.40;78.30;;;;;;10473167;28;20205;-81
2024/01/09 06:13:02;;;;;;;0.50;0.50;;;-0.40;78.10;;;;;;10470430;28;20205;-77
2024/01/09 06:18:07;;;;;;;0.40;0.40;;;-0.50;77.10;;;;;;10470269;28;20207;-79
2024/01/09 06:23:09;;;;;;;0.30;0.30;;;-0.70;77.00;;;;;;10469391;28;20725;-81
2024/01/09 06:28:12;;;;;;;0.33;0.33;;;-0.80;78.30;;;;;;10474220;28;20197;-78
2024/01/09 06:33:15;;;;;;;0.50;0.50;;;-0.80;79.30;;;;;;10456826;28;20238;-80
2024/01/09 06:38:18;;;;;;;0.40;0.40;;;-0.90;79.30;;;;;;10462827;28;20205;-80
2024/01/09 06:43:20;;;;;;;0.50;0.50;;;-1.00;79.00;;;;;;10498534;28;20208;-80
2024/01/09 06:48:24;;;;;;;0.27;0.27;;;-1.10;78.70;;;;;;10509159;28;20592;-78
2024/01/09 06:53:26;;;;;;;0.60;0.60;;;-1.20;79.10;;;;;;10473493;28;20717;-84
2024/01/09 06:58:28;;;;;;;0.43;0.43;;;-1.20;79.10;;;;;;10457142;28;20200;-80
2024/01/09 07:03:32;;;;;;;0.50;0.50;;;-1.20;80.00;;;;;;10472990;28;20232;-80
2024/01/09 07:08:34;;;;;;;0.50;0.50;;;-1.30;80.10;;;;;;10470635;28;20216;-81
2024/01/09 07:13:37;;;;;;;0.60;0.60;;;-1.30;80.50;;;;;;10467383;28;20228;-80
2024/01/09 07:18:40;;;;;;;0.50;0.50;;;-1.30;80.60;;;;;;10475508;28;20208;-82
2024/01/09 07:23:44;;;;;;;0.60;0.60;;;-1.30;80.70;;;;;;10452637;28;20224;-81
2024/01/09 07:28:46;;;;;;;0.50;0.50;;;-1.40;81.20;;;;;;10475693;28;20193;-84
2024/01/09 07:33:50;;;;;;;0.40;0.40;;;-1.30;81.40;;;;;;10447650;28;20233;-82
2024/01/09 07:38:52;;;;;;;0.50;0.50;;;-1.30;81.10;;;;;;10487705;28;20230;-82
2024/01/09 07:43:55;;;;;;;0.50;0.50;;;-1.30;80.70;;;;;;10482409;28;20232;-81
2024/01/09 07:48:58;;;;;;;0.50;0.50;;;-1.20;79.60;;;;;;10471603;28;20201;-77
2024/01/09 07:54:01;;;;;;;0.50;0.50;;;-1.20;79.30;;;;;;10481962;28;20229;-82
2024/01/09 07:59:04;;;;;;;0.50;0.50;;;-1.20;79.60;;;;;;10507840;28;20745;-80
2024/01/09 08:04:07;;;;;;;0.50;0.50;;;-1.10;79.90;;;;;;10498469;28;20209;-79
2024/01/09 08:09:10;;;;;;;0.50;0.50;;;-1.10;78.50;;;;;;10477922;28;20331;-78
2024/01/09 08:14:13;;;;;;;0.47;0.47;;;-1.00;78.70;;;;;;10497266;28;20219;-79
2024/01/09 08:19:17;;;;;;;0.50;0.50;;;-1.00;79.10;;;;;;10485977;28;20201;-80
2024/01/09 08:24:19;;;;;;;0.20;0.20;;;-0.90;78.40;;;;;;10500762;28;20227;-82
2024/01/09 08:29:26;;;;;;;0.50;0.50;;;-0.90;78.30;;;;;;10505110;28;20201;-78
2024/01/09 08:34:30;;;;;;;0.40;0.40;;;-0.90;78.30;;;;;;10474737;28;20262;-81
2024/01/09 08:39:32;;;;;;;0.40;0.40;;;-0.80;78.80;;;;;;10497181;28;20194;-78
2024/01/09 08:44:35;;;;;;;0.40;0.40;;;-0.70;79.80;;;;;;10472881;28;20228;-80
2024/01/09 08:49:38;;;;;;;0.40;0.40;;;-0.60;78.90;;;;;;10492739;28;20197;-79
2024/01/09 08:54:41;;;;;;;0.40;0.40;;;-0.40;77.60;;;;;;10473290;28;20627;-80
2024/01/09 08:59:43;;;;;;;0.33;0.33;;;-0.30;77.70;;;;;;10493745;28;20224;-80
2024/01/09 09:04:47;;;;;;;0.20;0.20;;;-0.20;77.80;;;;;;10471589;28;20208;-79
2024/01/09 09:09:49;;;;;;;0.40;0.40;;;-0.20;76.60;;;;;;10466027;28;20262;-80
2024/01/09 09:14:52;;;;;;;0.50;0.50;;;-0.10;77.60;;;;;;10477300;28;20220;-78
2024/01/09 09:19:55;;;;;;;0.40;0.40;;;0.00;75.20;;;;;;10504684;28;20209;-79
2024/01/09 09:24:59;;;;;;;0.40;0.40;;;0.00;74.10;;;;;;10488639;28;20661;-80
2024/01/09 09:30:01;;;;;;;0.30;0.30;;;0.10;73.40;;;;;;10497896;28;20492;-80
2024/01/09 09:35:05;;;;;;;0.20;0.20;;;0.10;74.30;;;;;;10448523;28;20220;-78
2024/01/09 09:40:09;;;;;;;0.30;0.30;;;0.10;73.90;;;;;;10493274;28;20259;-78
2024/01/09 09:45:14;;;;;;;0.20;0.20;;;0.20;74.10;;;;;;10523843;22;20605;-77
2024/01/09 09:50:19;;;;;;;0.37;0.37;;;0.30;72.40;;;;;;10578788;27;20187;-78
2024/01/09 09:55:22;;;;;;;0.27;0.27;;;0.20;71.30;;;;;;10599916;27;20222;-78
2024/01/09 10:00:24;;;;;;;0.40;0.40;;;0.20;73.30;;;;;;10578294;28;20180;-78
2024/01/09 10:05:32;;;;;;;0.30;0.30;;;0.20;73.30;;;;;;10581855;28;20199;-77
2024/01/09 10:10:34;;;;;;;0.30;0.30;;;0.30;72.80;;;;;;10578146;28;20656;-77
2024/01/09 10:15:56;;;;;;;0.23;0.23;;;0.30;71.10;;;;;;10577394;28;20821;-78
2024/01/09 10:21:00;;;;;;;0.30;0.30;;;0.30;70.90;;;;;;10579724;28;20187;-79
2024/01/09 10:26:04;;;;;;;0.20;0.20;;;0.30;73.00;;;;;;10578424;27;20218;-79
2024/01/09 10:31:08;;;;;;;0.30;0.30;;;0.40;72.20;;;;;;10587718;27;20195;-78
2024/01/09 10:36:12;;;;;;;0.20;0.20;;;0.50;72.10;;;;;;10604191;27;20253;-78
2024/01/09 10:41:15;;;;;;;0.20;0.20;;;0.50;72.60;;;;;;10603405;28;20216;-78
2024/01/09 10:46:17;;;;;;;0.30;0.30;;;0.60;71.90;;;;;;10599767;28;20222;-77
2024/01/09 10:51:22;;;;;;;0.20;0.20;;;0.70;70.90;;;;;;10590189;28;20195;-78
2024/01/09 10:56:26;;;;;;;0.10;0.10;;;0.70;70.00;;;;;;10571734;28;20219;-77
2024/01/09 11:01:28;;;;;;;0.30;0.30;;;0.80;70.80;;;;;;10575092;28;20339;-79
2024/01/09 11:06:33;;;;;;;0.20;0.20;;;0.80;71.90;;;;;;10563602;28;20207;-78
2024/01/09 11:11:37;;;;;;;0.30;0.30;;;0.90;70.60;;;;;;10576499;28;20204;-78
2024/01/09 11:16:43;;;;;;;0.40;0.40;;;0.90;71.10;;;;;;10577482;28;20223;-78
2024/01/09 11:21:47;;;;;;;0.20;0.20;;;1.10;70.40;;;;;;10571173;28;20285;-78
2024/01/09 11:27:10;;;;;;;0.30;0.30;;;1.10;71.50;;;;;;10569857;28;20713;-79
2024/01/09 11:32:13;;;;;;;0.20;0.20;;;1.20;69.20;;;;;;10576952;27;20645;-77
2024/01/09 11:37:19;;;;;;;0.30;0.30;;;1.20;69.50;;;;;;10579912;27;20285;-76
2024/01/09 11:42:22;;;;;;;0.40;0.40;;;1.30;68.30;;;;;;10577459;27;20676;-76
2024/01/09 11:47:24;;;;;;;0.40;0.40;;;1.40;67.80;;;;;;10576781;28;20219;-77
2024/01/09 11:52:29;;;;;;;0.30;0.30;;;1.30;68.10;;;;;;10577131;28;20643;-77
2024/01/09 11:57:32;;;;;;;0.10;0.10;;;1.40;68.80;;;;;;10577192;28;20223;-78
2024/01/09 12:02:36;;;;;;;0.20;0.20;;;1.50;67.50;;;;;;10579474;28;20192;-77
2024/01/09 12:07:40;;;;;;;0.13;0.13;;;1.50;66.80;;;;;;10580617;28;20222;-77
2024/01/09 12:12:43;;;;;;;0.20;0.20;;;1.50;67.50;;;;;;10569402;28;20695;-78
2024/01/09 12:17:52;;;;;;;0.30;0.30;;;1.60;68.10;;;;;;10545206;28;20276;-78
2024/01/09 12:22:56;;;;;;;0.30;0.30;;;1.60;66.00;;;;;;10575016;28;20203;-77
2024/01/09 12:28:00;;;;;;;0.20;0.20;;;1.70;66.00;;;;;;10553796;28;20223;-77
2024/01/09 12:33:03;;;;;;;0.30;0.30;;;1.80;67.80;;;;;;10543174;28;20748;-78
2024/01/09 12:38:06;;;;;;;0.30;0.30;;;1.90;66.70;;;;;;10573672;28;20285;-77
2024/01/09 12:43:10;;;;;;;0.30;0.30;;;1.90;66.70;;;;;;10543711;28;20210;-77
2024/01/09 12:48:13;;;;;;;0.40;0.40;;;2.00;67.10;;;;;;10578772;28;20230;-77
2024/01/09 12:53:17;;;;;;;0.40;0.40;;;2.10;65.80;;;;;;10544211;28;20642;-77
2024/01/09 12:58:20;;;;;;;0.30;0.30;;;2.10;66.00;;;;;;10578587;28;20219;-78
2024/01/09 13:03:22;;;;;;;0.30;0.30;;;2.20;65.50;;;;;;10542624;28;20188;-77
2024/01/09 13:08:26;;;;;;;0.10;0.10;;;2.20;66.30;;;;;;10553558;28;20199;-77
2024/01/09 13:13:28;;;;;;;0.20;0.20;;;2.30;66.40;;;;;;10567499;28;20703;-76
2024/01/09 13:18:30;;;;;;;0.30;0.30;;;2.30;63.70;;;;;;10562774;28;20187;-77
2024/01/09 13:23:34;;;;;;;0.17;0.17;;;2.30;65.10;;;;;;10572907;28;20252;-77
2024/01/09 13:28:37;;;;;;;0.30;0.30;;;2.40;68.50;;;;;;10570235;28;20669;-78
2024/01/09 13:33:40;;;;;;;0.20;0.20;;;2.50;66.80;;;;;;10555137;28;20245;-76
2024/01/09 13:38:44;;;;;;;0.30;0.30;;;2.50;65.20;;;;;;10569850;28;20219;-78
2024/01/09 13:43:48;;;;;;;0.10;0.10;;;2.50;64.20;;;;;;10566145;28;20254;-78
2024/01/09 13:48:51;;;;;;;0.20;0.20;;;2.60;62.50;;;;;;10572224;28;20256;-78
2024/01/09 13:53:55;;;;;;;0.30;0.30;;;2.60;63.60;;;;;;10566673;28;20284;-77
2024/01/09 13:58:57;;;;;;;0.30;0.30;;;2.60;65.70;;;;;;10568649;28;20244;-78
2024/01/09 14:04:00;;;;;;;0.30;0.30;;;2.70;65.80;;;;;;10564750;28;20636;-77
2024/01/09 14:09:03;;;;;;;0.30;0.30;;;2.70;64.20;;;;;;10566143;28;20268;-77
2024/01/09 14:14:06;;;;;;;0.30;0.30;;;2.70;65.10;;;;;;10577441;28;20715;-77
2024/01/09 14:19:09;;;;;;;0.30;0.30;;;2.80;64.10;;;;;;10556536;28;20709;-76
2024/01/09 14:24:12;;;;;;;0.20;0.20;;;2.70;66.40;;;;;;10543680;28;20217;-78
2024/01/09 14:29:15;;;;;;;0.30;0.30;;;2.70;65.90;;;;;;10577557;28;20600;-77
2024/01/09 14:34:17;;;;;;;0.40;0.40;;;2.70;66.20;;;;;;10560110;28;20589;-77
2024/01/09 14:39:21;;;;;;;0.50;0.50;;;2.80;67.30;;;;;;10575297;28;20226;-78
2024/01/09 14:44:23;;;;;;;0.60;0.60;;;2.80;66.00;;;;;;10567598;28;20212;-76
2024/01/09 14:49:26;;;;;;;0.60;0.60;;;2.80;67.00;;;;;;10569267;28;20667;-78
2024/01/09 14:54:29;;;;;;;0.40;0.40;;;2.80;67.10;;;;;;10568135;28;20280;-78
2024/01/09 14:59:32;;;;;;;0.50;0.50;;;2.80;67.20;;;;;;10535675;28;20269;-77
2024/01/09 15:04:34;;;;;;;0.30;0.30;;;2.80;67.90;;;;;;10581026;28;20703;-76
2024/01/09 15:09:38;;;;;;;0.10;0.10;;;2.80;68.30;;;;;;10584215;28;20203;-77
2024/01/09 15:14:40;;;;;;;0.50;0.50;;;2.70;67.40;;;;;;10575654;28;20553;-78
2024/01/09 15:19:43;;;;;;;0.20;0.20;;;2.70;68.20;;;;;;10567188;28;20240;-76
2024/01/09 15:24:46;;;;;;;0.33;0.33;;;2.70;67.70;;;;;;10574866;28;20211;-78
2024/01/09 15:29:49;;;;;;;0.50;0.50;;;2.70;67.60;;;;;;10574976;28;20195;-78
2024/01/09 15:34:52;;;;;;;0.40;0.40;;;2.70;67.40;;;;;;10583469;28;20233;-77
2024/01/09 15:39:56;;;;;;;0.20;0.20;;;2.60;68.30;;;;;;10574408;28;20203;-78
2024/01/09 15:44:58;;;;;;;0.10;0.10;;;2.50;68.80;;;;;;10582507;28;20219;-77
2024/01/09 15:50:00;;;;;;;0.50;0.50;;;2.40;69.10;;;;;;10559601;28;20196;-76
2024/01/09 15:55:05;;;;;;;0.50;0.50;;;2.40;69.20;;;;;;10578528;28;20219;-76
2024/01/09 16:00:10;;;;;;;0.30;0.30;;;2.30;69.80;;;;;;10573296;28;20199;-77
2024/01/09 16:05:12;;;;;;;0.50;0.50;;;2.30;69.80;;;;;;10575109;28;20216;-78
2024/01/09 16:10:16;;;;;;;0.50;0.50;;;2.20;69.50;;;;;;10571850;28;20195;-77
2024/01/09 16:15:18;;;;;;;0.40;0.40;;;2.10;69.90;;;;;;10565784;28;20231;-75
2024/01/09 16:20:20;;;;;;;0.50;0.50;;;2.00;69.40;;;;;;10564343;28;20709;-77
2024/01/09 16:25:25;;;;;;;0.40;0.40;;;2.00;70.10;;;;;;10572051;28;20804;-77
2024/01/09 16:30:27;;;;;;;0.60;0.60;;;1.90;70.70;;;;;;10572789;28;20245;-78
2024/01/09 16:35:30;;;;;;;0.40;0.40;;;1.80;70.60;;;;;;10543805;28;20285;-76
2024/01/09 16:40:36;;;;;;;0.50;0.50;;;1.70;70.90;;;;;;10554570;28;20626;-78
2024/01/09 16:45:40;;;;;;;0.40;0.40;;;1.60;71.10;;;;;;10567501;28;20264;-76
2024/01/09 16:50:42;;;;;;;0.33;0.33;;;1.50;71.80;;;;;;10569628;28;20214;-79
2024/01/09 16:55:47;;;;;;;0.43;0.43;;;1.50;71.80;;;;;;10564729;28;20222;-77
2024/01/09 17:00:49;;;;;;;0.60;0.60;;;1.40;72.40;;;;;;10580162;27;20203;-76
2024/01/09 17:05:52;;;;;;;0.50;0.50;;;1.40;72.10;;;;;;10594973;27;20223;-77
2024/01/09 17:10:57;;;;;;;0.60;0.60;;;1.30;71.70;;;;;;10592494;27;20199;-79
2024/01/09 17:15:59;;;;;;;0.40;0.40;;;1.20;72.60;;;;;;10591485;27;20261;-78
2024/01/09 17:21:02;;;;;;;0.40;0.40;;;1.20;72.90;;;;;;10567511;27;20207;-78
2024/01/09 17:26:06;;;;;;;0.40;0.40;;;1.10;73.00;;;;;;10565033;28;20223;-78
2024/01/09 17:31:08;;;;;;;0.37;0.37;;;1.00;73.30;;;;;;10570591;27;20622;-78
2024/01/09 17:36:12;;;;;;;0.40;0.40;;;1.00;73.50;;;;;;10559442;27;20218;-77
2024/01/09 17:41:15;;;;;;;0.20;0.20;;;0.90;73.40;;;;;;10569790;27;20195;-76
2024/01/09 17:46:18;;;;;;;0.47;0.47;;;0.90;73.60;;;;;;10564776;28;20219;-78
2024/01/09 17:51:21;;;;;;;0.50;0.50;;;0.80;74.10;;;;;;10575998;27;20705;-77
2024/01/09 17:56:25;;;;;;;0.20;0.20;;;0.90;74.90;;;;;;10576402;27;20234;-78
2024/01/09 18:01:27;;;;;;;0.50;0.50;;;0.90;74.70;;;;;;10584568;27;20207;-80
2024/01/09 18:06:29;;;;;;;0.40;0.40;;;0.90;74.60;;;;;;10576810;27;20727;-79
2024/01/09 18:11:35;;;;;;;0.50;0.50;;;0.90;74.50;;;;;;10573829;27;20204;-77
2024/01/09 18:16:37;;;;;;;0.50;0.50;;;0.90;74.90;;;;;;10559186;27;20265;-77
2024/01/09 18:21:41;;;;;;;0.50;0.50;;;0.90;73.60;;;;;;10571045;27;20186;-77
2024/01/09 18:26:45;;;;;;;0.60;0.60;;;0.90;73.10;;;;;;10564551;28;20253;-77
2024/01/09 18:31:48;;;;;;;0.50;0.50;;;0.80;73.10;;;;;;10585921;27;20207;-77
2024/01/09 18:36:51;;;;;;;0.50;0.50;;;0.80;72.50;;;;;;10586407;27;20215;-76
2024/01/09 18:41:57;;;;;;;0.50;0.50;;;0.70;73.50;;;;;;10580551;27;20214;-76
2024/01/09 18:46:59;;;;;;;0.40;0.40;;;0.70;73.30;;;;;;10556414;28;20765;-77
2024/01/09 18:52:02;;;;;;;0.60;0.60;;;0.50;73.50;;;;;;10574567;28;20196;-77
2024/01/09 18:57:06;;;;;;;0.50;0.50;;;0.40;73.90;;;;;;10544768;28;20249;-77
2024/01/09 19:02:08;;;;;;;0.40;0.40;;;0.40;73.90;;;;;;10560943;28;20688;-78
2024/01/09 19:07:11;;;;;;;0.40;0.40;;;0.30;73.90;;;;;;10572706;28;20230;-76
2024/01/09 19:12:15;;;;;;;0.40;0.40;;;0.30;75.10;;;;;;10571524;28;20260;-76
2024/01/09 19:17:17;;;;;;;0.20;0.20;;;0.20;75.00;;;;;;10554005;28;20230;-76
2024/01/09 19:22:19;;;;;;;0.40;0.40;;;0.20;75.20;;;;;;10550092;28;20187;-76
2024/01/09 19:27:23;;;;;;;0.50;0.50;;;0.20;74.10;;;;;;10566083;28;20662;-77
2024/01/09 19:32:27;;;;;;;0.40;0.40;;;0.20;74.50;;;;;;10568384;28;20207;-76
2024/01/09 19:37:29;;;;;;;0.40;0.40;;;0.10;75.10;;;;;;10542111;28;20715;-79
2024/01/09 19:42:33;;;;;;;0.20;0.20;;;0.00;74.90;;;;;;10550411;28;20212;-75
2024/01/09 19:47:35;;;;;;;0.40;0.40;;;0.00;74.40;;;;;;10556109;28;20222;-75
2024/01/09 19:52:38;;;;;;;0.10;0.10;;;-0.10;74.50;;;;;;10564547;28;21005;-77
2024/01/09 19:57:41;;;;;;;0.40;0.40;;;-0.10;73.90;;;;;;10572439;28;20227;-77
2024/01/09 20:02:44;;;;;;;0.40;0.40;;;-0.10;74.20;;;;;;10568333;28;20203;-77
2024/01/09 20:07:46;;;;;;;0.43;0.43;;;-0.10;74.20;;;;;;10579976;28;20627;-77
2024/01/09 20:12:50;;;;;;;0.40;0.40;;;-0.10;74.50;;;;;;10579306;28;20195;-76
2024/01/09 20:17:52;;;;;;;0.40;0.40;;;-0.10;74.00;;;;;;10573414;28;20234;-75
2024/01/09 20:22:54;;;;;;;0.43;0.43;;;-0.20;74.00;;;;;;10576508;28;20203;-75
2024/01/09 20:27:59;;;;;;;0.50;0.50;;;-0.10;73.90;;;;;;10567769;28;20212;-76
2024/01/09 20:33:02;;;;;;;0.47;0.47;;;-0.20;75.00;;;;;;10578561;28;20656;-76
2024/01/09 20:38:05;;;;;;;0.40;0.40;;;-0.20;75.50;;;;;;10569488;28;20692;-77
2024/01/09 20:43:09;;;;;;;0.60;0.60;;;-0.30;75.60;;;;;;10561847;28;20600;-77
2024/01/09 20:48:12;;;;;;;0.50;0.50;;;-0.30;76.10;;;;;;10551797;28;20223;-76
2024/01/09 20:53:14;;;;;;;0.40;0.40;;;-0.30;76.50;;;;;;10563044;28;20199;-75
2024/01/09 20:58:19;;;;;;;0.40;0.40;;;-0.40;76.60;;;;;;10575523;28;20292;-76
2024/01/09 21:03:23;;;;;;;0.40;0.40;;;-0.40;76.70;;;;;;10563095;28;20199;-76
2024/01/09 21:08:26;;;;;;;0.50;0.50;;;-0.50;77.00;;;;;;10565559;28;20199;-74
2024/01/09 21:13:29;;;;;;;0.40;0.40;;;-0.50;76.60;;;;;;10556530;28;20195;-76
2024/01/09 21:18:32;;;;;;;0.40;0.40;;;-0.50;76.50;;;;;;10559917;28;20230;-76
2024/01/09 21:23:34;;;;;;;0.40;0.40;;;-0.60;76.80;;;;;;10561181;28;20210;-74
2024/01/09 21:28:38;;;;;;;0.40;0.40;;;-0.70;77.00;;;;;;10561121;28;20206;-76
2024/01/09 21:33:40;;;;;;;0.30;0.30;;;-0.80;77.60;;;;;;10551172;28;20276;-76
2024/01/09 21:38:43;;;;;;;0.30;0.30;;;-0.70;77.30;;;;;;10571729;28;20700;-74
2024/01/09 21:43:48;;;;;;;0.40;0.40;;;-0.70;77.90;;;;;;10556377;28;20219;-75
2024/01/09 21:48:52;;;;;;;0.30;0.30;;;-0.70;78.60;;;;;;10554903;28;20226;-75
2024/01/09 21:53:56;;;;;;;0.40;0.40;;;-0.80;78.10;;;;;;10554666;28;20226;-75
2024/01/09 21:59:03;;;;;;;0.30;0.30;;;-0.90;78.20;;;;;;10551853;28;20219;-76
2024/01/09 22:04:05;;;;;;;0.30;0.30;;;-0.80;78.50;;;;;;10575316;28;20268;-76
2024/01/09 22:09:08;;;;;;;0.33;0.33;;;-0.80;79.10;;;;;;10565183;28;20220;-76
2024/01/09 22:14:12;;;;;;;0.33;0.33;;;-0.80;79.10;;;;;;10564165;28;20703;-75
2024/01/09 22:19:15;;;;;;;0.50;0.50;;;-0.80;79.10;;;;;;10564831;28;20207;-77
2024/01/09 22:24:17;;;;;;;0.40;0.40;;;-0.90;79.40;;;;;;10564607;28;20225;-76
2024/01/09 22:29:21;;;;;;;0.30;0.30;;;-0.90;79.60;;;;;;10568539;28;20214;-75
2024/01/09 22:34:24;;;;;;;0.30;0.30;;;-0.80;79.30;;;;;;10563479;28;20238;-77
2024/01/09 22:39:26;;;;;;;0.40;0.40;;;-0.80;79.20;;;;;;10565544;28;20245;-76
2024/01/09 22:44:30;;;;;;;0.37;0.37;;;-0.90;79.80;;;;;;10556452;28;20705;-77
2024/01/09 22:49:33;;;;;;;0.30;0.30;;;-0.90;79.50;;;;;;10562145;28;20190;-77
2024/01/09 22:54:37;;;;;;;0.30;0.30;;;-0.90;79.30;;;;;;10561757;28;20222;-77
2024/01/09 22:59:41;;;;;;;0.40;0.40;;;-0.80;78.60;;;;;;10568311;28;20268;-76
2024/01/09 23:04:43;;;;;;;0.30;0.30;;;-0.80;78.10;;;;;;10572391;28;20211;-76
2024/01/09 23:09:46;;;;;;;0.40;0.40;;;-0.70;78.00;;;;;;10572747;28;20686;-77
2024/01/09 23:14:50;;;;;;;0.40;0.40;;;-0.60;76.50;;;;;;10570226;28;20292;-75
2024/01/09 23:19:52;;;;;;;0.30;0.30;;;-0.50;76.20;;;;;;10568342;28;20223;-77
2024/01/09 23:24:54;;;;;;;0.40;0.40;;;-0.50;75.80;;;;;;10562177;28;20639;-77
2024/01/09 23:29:58;;;;;;;0.47;0.47;;;-0.40;76.70;;;;;;10555387;28;20196;-76
2024/01/09 23:35:00;;;;;;;0.30;0.30;;;-0.30;75.40;;;;;;10558419;28;20223;-77
2024/01/09 23:40:03;;;;;;;0.40;0.40;;;-0.20;75.50;;;;;;10567036;28;20330;-78
2024/01/09 23:45:10;;;;;;;0.40;0.40;;;-0.20;75.10;;;;;;10553864;28;20237;-76
2024/01/09 23:50:12;;;;;;;0.40;0.40;;;-0.20;75.70;;;;;;10565554;28;20242;-77
2024/01/09 23:55:15;;;;;;;0.40;0.40;;;-0.10;75.60;;;;;;10555264;28;20593;-77
